createdAt,value
2022-11-10T00:02:10.921Z,38.28
2022-11-10T00:04:56.184Z,38.63
2022-11-10T00:07:41.964Z,37.30
2022-11-10T00:10:28.136Z,37.17
2022-11-10T00:13:13.574Z,34.50
2022-11-10T00:16:19.740Z,35.25
2022-11-10T00:19:05.235Z,37.72
2022-11-10T00:21:50.678Z,36.47
2022-11-10T00:24:35.764Z,37.83
2022-11-10T00:27:21.022Z,38.08
2022-11-10T00:30:06.714Z,37.80
2022-11-10T00:32:52.042Z,36.28
2022-11-10T00:35:37.431Z,36.58
2022-11-10T00:38:22.650Z,37.13
2022-11-10T00:41:08.048Z,38.15
2022-11-10T00:43:53.282Z,38.60
2022-11-10T00:46:38.593Z,37.15
2022-11-10T00:49:23.815Z,39.35
2022-11-10T00:52:09.147Z,36.95
2022-11-10T00:54:54.476Z,37.60
2022-11-10T00:57:39.710Z,40.72
2022-11-10T01:00:25.007Z,36.03
2022-11-10T01:03:17.841Z,38.75
2022-11-10T01:06:07.848Z,40.72
2022-11-10T01:08:53.045Z,38.83
2022-11-10T01:11:38.348Z,38.65
2022-11-10T01:14:23.604Z,37.38
2022-11-10T01:17:08.996Z,38.17
2022-11-10T01:19:54.369Z,38.00
2022-11-10T01:22:40.692Z,38.30
2022-11-10T01:25:26.207Z,38.17
2022-11-10T01:28:11.574Z,37.75
2022-11-10T01:31:01.714Z,38.63
2022-11-10T01:33:47.006Z,35.70
2022-11-10T01:36:32.348Z,37.03
2022-11-10T01:39:17.522Z,38.40
2022-11-10T01:42:03.832Z,37.38
2022-11-10T01:45:23.856Z,36.38
2022-11-10T01:48:12.909Z,34.95
2022-11-10T01:51:10.095Z,37.13
2022-11-10T01:54:06.276Z,37.55
2022-11-10T01:56:58.858Z,36.70
2022-11-10T01:59:48.760Z,37.65
2022-11-10T02:02:47.824Z,36.75
2022-11-10T02:05:33.654Z,37.08
2022-11-10T02:08:19.611Z,37.25
2022-11-10T02:11:05.050Z,32.33
2022-11-10T02:13:51.532Z,36.28
2022-11-10T02:16:37.561Z,32.75
2022-11-10T02:19:25.917Z,33.00
2022-11-10T02:22:11.255Z,33.75
2022-11-10T02:24:56.988Z,30.52
2022-11-10T02:27:42.280Z,32.08
2022-11-10T02:30:27.991Z,32.83
2022-11-10T02:33:13.521Z,31.62
2022-11-10T02:35:58.986Z,31.08
2022-11-10T02:38:44.201Z,30.52
2022-11-10T02:41:29.659Z,28.98
2022-11-10T02:44:15.066Z,30.27
2022-11-10T02:47:00.257Z,32.33
2022-11-10T02:49:45.730Z,28.75
2022-11-10T02:52:30.799Z,31.10
2022-11-10T02:55:16.242Z,31.20
2022-11-10T02:58:01.588Z,31.00
2022-11-10T03:00:46.837Z,28.95
2022-11-10T03:03:33.577Z,27.08
2022-11-10T03:06:19.695Z,28.05
2022-11-10T03:09:11.847Z,27.15
2022-11-10T03:11:57.407Z,26.73
2022-11-10T03:14:42.883Z,26.90
2022-11-10T03:17:28.282Z,25.12
2022-11-10T03:20:14.199Z,29.10
2022-11-10T03:23:08.478Z,25.20
2022-11-10T03:25:54.146Z,27.50
2022-11-10T03:28:39.560Z,27.60
2022-11-10T03:31:24.863Z,25.42
2022-11-10T03:34:10.249Z,24.50
2022-11-10T03:36:55.568Z,25.33
2022-11-10T03:39:40.881Z,23.48
2022-11-10T03:42:26.286Z,20.95
2022-11-10T03:45:14.252Z,22.23
2022-11-10T03:47:59.735Z,20.62
2022-11-10T03:50:45.079Z,20.98
2022-11-10T03:53:30.384Z,19.52
2022-11-10T03:56:15.988Z,22.77
2022-11-10T03:59:01.770Z,21.25
2022-11-10T04:01:46.982Z,22.80
2022-11-10T04:04:51.009Z,23.08
2022-11-10T04:07:55.275Z,21.65
2022-11-10T04:10:40.959Z,23.00
2022-11-10T04:13:44.562Z,22.70
2022-11-10T04:16:30.251Z,20.98
2022-11-10T04:19:15.555Z,21.25
2022-11-10T04:22:00.983Z,21.80
2022-11-10T04:24:46.562Z,21.00
2022-11-10T04:27:31.812Z,22.40
2022-11-10T04:30:17.471Z,21.02
2022-11-10T04:33:02.667Z,20.92
2022-11-10T04:35:48.007Z,23.55
2022-11-10T04:38:33.467Z,20.88
2022-11-10T04:41:19.020Z,19.62
2022-11-10T04:44:05.187Z,22.00
2022-11-10T04:46:50.736Z,21.67
2022-11-10T04:49:35.998Z,21.80
2022-11-10T04:52:21.208Z,21.50
2022-11-10T04:55:06.974Z,19.08
2022-11-10T04:57:52.321Z,18.92
2022-11-10T05:00:38.045Z,20.65
2022-11-10T05:03:24.312Z,19.60
2022-11-10T05:06:10.307Z,19.33
2022-11-10T05:08:55.690Z,20.77
2022-11-10T05:11:40.864Z,19.77
2022-11-10T05:14:25.980Z,18.55
2022-11-10T05:17:11.317Z,19.08
2022-11-10T05:19:56.688Z,19.12
2022-11-10T05:22:48.869Z,19.92
2022-11-10T05:25:37.317Z,20.08
2022-11-10T05:28:23.258Z,21.92
2022-11-10T05:31:09.711Z,20.95
2022-11-10T05:33:54.953Z,20.55
2022-11-10T05:36:40.407Z,19.80
2022-11-10T05:39:25.515Z,19.60
2022-11-10T05:42:10.895Z,19.37
2022-11-10T05:44:56.191Z,19.08
2022-11-10T05:47:41.909Z,20.00
2022-11-10T05:50:27.670Z,19.15
2022-11-10T05:53:13.246Z,21.00
2022-11-10T05:55:58.879Z,20.70
2022-11-10T05:58:44.245Z,21.70
2022-11-10T06:01:29.641Z,22.48
2022-11-10T06:04:15.119Z,20.80
2022-11-10T06:07:00.584Z,20.83
2022-11-10T06:09:46.128Z,18.77
2022-11-10T06:12:31.781Z,20.33
2022-11-10T06:15:17.350Z,21.27
2022-11-10T06:18:03.572Z,19.85
2022-11-10T06:20:49.046Z,19.42
2022-11-10T06:23:34.272Z,20.30
2022-11-10T06:26:19.618Z,19.62
2022-11-10T06:29:05.037Z,22.02
2022-11-10T06:31:50.325Z,21.10
2022-11-10T06:34:35.611Z,20.08
2022-11-10T06:37:21.031Z,19.65
2022-11-10T06:40:08.959Z,22.40
2022-11-10T06:42:55.060Z,19.75
2022-11-10T06:45:40.687Z,20.30
2022-11-10T06:48:26.404Z,19.55
2022-11-10T06:51:11.787Z,21.08
2022-11-10T06:53:56.979Z,20.75
2022-11-10T06:56:42.329Z,21.37
2022-11-10T06:59:27.590Z,19.37
2022-11-10T07:02:16.238Z,20.85
2022-11-10T07:05:01.853Z,21.15
2022-11-10T07:07:47.062Z,20.65
2022-11-10T07:10:33.924Z,21.83
2022-11-10T07:13:19.953Z,21.45
2022-11-10T07:16:09.202Z,21.35
2022-11-10T07:18:54.663Z,22.02
2022-11-10T07:21:42.392Z,20.92
2022-11-10T07:24:30.471Z,22.85
2022-11-10T07:27:16.130Z,22.10
2022-11-10T07:30:01.446Z,20.65
2022-11-10T07:32:46.835Z,22.98
2022-11-10T07:35:33.850Z,22.33
2022-11-10T07:38:19.859Z,20.60
2022-11-10T07:41:05.514Z,21.58
2022-11-10T07:43:50.855Z,20.85
2022-11-10T07:46:36.446Z,20.58
2022-11-10T07:49:21.696Z,20.62
2022-11-10T07:52:07.128Z,22.27
2022-11-10T07:54:52.472Z,23.20
2022-11-10T07:57:37.752Z,21.70
2022-11-10T08:00:23.256Z,19.92
2022-11-10T08:03:17.205Z,20.58
2022-11-10T08:06:02.360Z,19.52
2022-11-10T08:08:47.756Z,20.77
2022-11-10T08:11:33.066Z,24.23
2022-11-10T08:14:18.309Z,19.75
2022-11-10T08:17:03.694Z,19.17
2022-11-10T08:19:48.911Z,18.60
2022-11-10T08:22:34.435Z,18.37
2022-11-10T08:25:19.552Z,18.40
2022-11-10T08:28:07.505Z,18.67
2022-11-10T08:30:53.490Z,19.10
2022-11-10T08:33:38.593Z,18.35
2022-11-10T08:36:24.052Z,18.00
2022-11-10T08:39:09.210Z,18.17
2022-11-10T08:41:54.472Z,18.85
2022-11-10T08:44:39.791Z,17.90
2022-11-10T08:47:25.049Z,18.58
2022-11-10T08:50:10.507Z,17.85
2022-11-10T08:52:56.146Z,19.05
2022-11-10T08:55:42.789Z,16.70
2022-11-10T08:58:28.492Z,17.70
2022-11-10T09:01:13.766Z,16.92
2022-11-10T09:03:58.944Z,16.58
2022-11-10T09:06:44.363Z,17.67
2022-11-10T09:09:30.120Z,16.95
2022-11-10T09:12:15.653Z,18.70
2022-11-10T09:15:00.906Z,19.70
2022-11-10T09:18:07.149Z,19.42
2022-11-10T09:20:52.528Z,19.25
2022-11-10T09:23:38.071Z,18.60
2022-11-10T09:26:23.861Z,20.12
2022-11-10T09:29:10.190Z,20.67
2022-11-10T09:31:55.351Z,20.58
2022-11-10T09:34:40.727Z,19.87
2022-11-10T09:37:26.291Z,20.50
2022-11-10T09:40:18.332Z,21.20
2022-11-10T09:43:06.194Z,20.48
2022-11-10T09:45:55.381Z,22.77
2022-11-10T09:49:22.913Z,20.95
2022-11-10T09:52:11.442Z,23.42
2022-11-10T09:54:59.383Z,22.65
2022-11-10T09:57:48.992Z,23.30
2022-11-10T10:00:36.612Z,22.27
2022-11-10T10:03:26.850Z,21.45
2022-11-10T10:06:16.236Z,23.15
2022-11-10T10:09:29.304Z,25.95
2022-11-10T10:12:42.991Z,22.30
2022-11-10T10:15:45.840Z,21.02
2022-11-10T10:19:00.188Z,22.65
2022-11-10T10:22:18.293Z,22.02
2022-11-10T10:25:13.139Z,20.73
2022-11-10T10:30:49.958Z,22.02
2022-11-10T10:33:35.442Z,21.35
2022-11-10T10:36:25.815Z,21.65
2022-11-10T10:39:18.202Z,22.45
2022-11-10T10:42:16.051Z,21.55
2022-11-10T10:45:25.289Z,21.90
2022-11-10T10:48:28.924Z,23.02
2022-11-10T10:51:40.909Z,22.20
2022-11-10T10:54:32.262Z,20.52
2022-11-10T10:57:25.906Z,20.95
2022-11-10T11:00:22.254Z,19.92
2022-11-10T11:03:29.880Z,21.73
2022-11-10T11:06:15.608Z,21.65
2022-11-10T11:09:16.714Z,18.67
2022-11-10T11:12:06.378Z,21.35
2022-11-10T11:14:51.634Z,20.40
2022-11-10T11:17:37.461Z,21.02
2022-11-10T11:20:58.063Z,20.00
2022-11-10T11:24:20.699Z,19.02
2022-11-10T11:27:25.105Z,20.17
2022-11-10T11:30:23.833Z,20.55
2022-11-10T11:33:52.039Z,20.62
2022-11-10T11:36:51.512Z,18.90
2022-11-10T11:40:01.380Z,19.42
2022-11-10T11:43:13.567Z,18.48
2022-11-10T11:46:14.489Z,19.08
2022-11-10T11:49:27.873Z,18.87
2022-11-10T11:52:40.828Z,18.35
2022-11-10T11:55:34.193Z,17.85
2022-11-10T11:58:34.409Z,16.98
2022-11-10T12:01:22.683Z,17.15
2022-11-10T12:04:19.241Z,17.83
2022-11-10T12:07:17.234Z,15.65
2022-11-10T12:10:24.160Z,17.30
2022-11-10T12:13:25.744Z,16.83
2022-11-10T12:16:16.685Z,16.67
2022-11-10T12:19:04.848Z,16.42
2022-11-10T12:21:58.387Z,18.12
2022-11-10T12:25:12.045Z,19.12
2022-11-10T12:28:17.296Z,17.10
2022-11-10T12:31:06.074Z,16.73
2022-11-10T12:34:01.925Z,16.92
2022-11-10T12:36:50.533Z,17.05
2022-11-10T12:39:50.061Z,17.65
2022-11-10T12:42:38.631Z,16.50
2022-11-10T12:45:28.813Z,18.40
2022-11-10T12:48:17.627Z,17.85
2022-11-10T12:51:12.915Z,18.77
2022-11-10T12:53:58.828Z,18.83
2022-11-10T12:56:50.411Z,19.27
2022-11-10T12:59:39.796Z,19.30
2022-11-10T13:02:31.778Z,18.62
2022-11-10T13:05:27.761Z,19.52
2022-11-10T13:08:28.065Z,20.55
2022-11-10T13:11:13.715Z,18.08
2022-11-10T13:14:02.690Z,21.08
2022-11-10T13:16:52.182Z,18.77
2022-11-10T13:19:39.111Z,20.17
2022-11-10T13:22:37.069Z,20.75
2022-11-10T13:25:41.743Z,19.98
2022-11-10T13:28:48.647Z,21.27
2022-11-10T13:31:33.818Z,18.15
2022-11-10T13:34:18.964Z,20.50
2022-11-10T13:37:33.720Z,19.55
2022-11-10T13:40:25.160Z,18.23
2022-11-10T13:43:20.131Z,20.02
2022-11-10T13:46:05.884Z,20.02
2022-11-10T13:49:18.352Z,19.02
2022-11-10T13:52:22.114Z,19.95
2022-11-10T13:55:20.227Z,19.40
2022-11-10T13:58:10.755Z,19.23
2022-11-10T14:01:14.988Z,19.48
2022-11-10T14:04:04.884Z,21.62
2022-11-10T14:06:53.252Z,21.12
2022-11-10T14:09:41.535Z,20.12
2022-11-10T14:12:35.386Z,20.05
2022-11-10T14:15:26.086Z,18.27
2022-11-10T14:18:29.126Z,21.00
2022-11-10T14:21:23.113Z,21.25
2022-11-10T14:24:19.564Z,20.62
2022-11-10T14:27:15.747Z,20.37
2022-11-10T14:30:21.536Z,21.25
2022-11-10T14:33:11.958Z,21.62
2022-11-10T14:36:03.169Z,19.00
2022-11-10T14:38:50.575Z,20.58
2022-11-10T14:41:36.421Z,20.00
2022-11-10T14:44:25.838Z,19.50
2022-11-10T14:47:31.492Z,18.75
2022-11-10T14:50:37.318Z,19.33
2022-11-10T14:53:51.723Z,19.52
2022-11-10T14:56:57.390Z,20.73
2022-11-10T15:00:09.430Z,20.20
2022-11-10T15:03:23.374Z,19.90
2022-11-10T15:06:30.501Z,19.52
2022-11-10T15:09:35.782Z,23.05
2022-11-10T15:12:42.312Z,20.30
2022-11-10T15:15:47.631Z,19.70
2022-11-10T15:18:55.467Z,19.67
2022-11-10T15:22:33.602Z,20.65
2022-11-10T15:25:40.925Z,19.02
2022-11-10T15:28:46.969Z,19.27
2022-11-10T15:31:53.115Z,21.60
2022-11-10T15:35:08.673Z,20.10
2022-11-10T15:41:27.615Z,19.23
2022-11-10T15:44:33.169Z,18.83
2022-11-10T15:47:38.713Z,17.85
2022-11-10T15:50:47.604Z,18.65
2022-11-10T15:53:54.332Z,18.33
2022-11-10T15:56:59.924Z,19.58
2022-11-10T16:00:05.912Z,17.98
2022-11-10T16:03:18.174Z,19.35
2022-11-10T16:06:23.326Z,19.10
2022-11-10T16:09:28.818Z,18.67
2022-11-10T16:12:35.114Z,18.15
2022-11-10T16:15:41.447Z,17.48
2022-11-10T16:18:50.366Z,19.62
2022-11-10T16:21:55.728Z,18.27
2022-11-10T16:25:04.523Z,19.23
2022-11-10T16:28:11.761Z,18.12
2022-11-10T16:31:18.898Z,18.55
2022-11-10T16:34:23.796Z,18.48
2022-11-10T16:37:32.849Z,16.58
2022-11-10T16:40:41.039Z,16.08
2022-11-10T16:43:49.039Z,16.30
2022-11-10T16:46:36.989Z,17.77
2022-11-10T16:49:31.661Z,17.45
2022-11-10T16:52:21.514Z,15.38
2022-11-10T16:55:13.798Z,17.45
2022-11-10T16:57:59.384Z,16.85
2022-11-10T17:00:47.231Z,17.40
2022-11-10T17:03:35.433Z,16.02
2022-11-10T17:06:23.305Z,17.35
2022-11-10T17:09:21.626Z,17.00
2022-11-10T17:12:07.126Z,15.23
2022-11-10T17:14:52.760Z,16.45
2022-11-10T17:17:39.213Z,17.48
2022-11-10T17:20:32.378Z,18.92
2022-11-10T17:23:21.562Z,14.38
2022-11-10T17:26:18.701Z,17.62
2022-11-10T17:29:04.448Z,15.63
2022-11-10T17:31:53.065Z,16.77
2022-11-10T17:34:38.562Z,16.00
2022-11-10T17:37:23.882Z,16.58
2022-11-10T17:40:19.569Z,16.08
2022-11-10T17:43:05.028Z,16.20
2022-11-10T17:45:50.772Z,17.10
2022-11-10T17:48:36.404Z,16.17
2022-11-10T17:51:22.722Z,16.08
2022-11-10T17:54:15.441Z,17.85
2022-11-10T17:57:01.131Z,18.48
2022-11-10T17:59:46.336Z,17.37
2022-11-10T18:02:31.600Z,16.08
2022-11-10T18:05:18.507Z,18.02
2022-11-10T18:08:04.006Z,16.33
2022-11-10T18:10:51.301Z,18.05
2022-11-10T18:13:38.129Z,17.95
2022-11-10T18:16:23.759Z,17.83
2022-11-10T18:19:10.472Z,17.98
2022-11-10T18:21:56.018Z,16.15
2022-11-10T18:24:42.496Z,17.67
2022-11-10T18:27:28.494Z,17.80
2022-11-10T18:30:14.652Z,16.40
2022-11-10T18:33:04.994Z,16.17
2022-11-10T18:35:50.366Z,16.85
2022-11-10T18:38:36.013Z,17.15
2022-11-10T18:41:40.195Z,16.90
2022-11-10T18:44:26.412Z,17.45
2022-11-10T18:47:13.536Z,17.10
2022-11-10T18:49:59.073Z,19.98
2022-11-10T18:52:45.123Z,16.58
2022-11-10T18:55:30.824Z,17.05
2022-11-10T18:58:16.388Z,17.02
2022-11-10T19:01:11.751Z,17.00
2022-11-10T19:03:58.128Z,16.77
2022-11-10T19:06:44.073Z,17.52
2022-11-10T19:09:29.796Z,16.42
2022-11-10T19:12:15.359Z,17.12
2022-11-10T19:15:00.707Z,17.75
2022-11-10T19:17:46.141Z,18.65
2022-11-10T19:20:31.470Z,17.58
2022-11-10T19:23:17.757Z,17.85
2022-11-10T19:26:13.388Z,18.45
2022-11-10T19:29:01.298Z,17.75
2022-11-10T19:31:46.974Z,15.20
2022-11-10T19:34:32.429Z,16.15
2022-11-10T19:37:17.814Z,17.27
2022-11-10T19:40:04.112Z,17.75
2022-11-10T19:42:49.790Z,16.75
2022-11-10T19:45:35.190Z,16.17
2022-11-10T19:48:20.423Z,17.58
2022-11-10T19:51:09.117Z,16.52
2022-11-10T19:53:58.101Z,15.93
2022-11-10T19:56:43.735Z,17.87
2022-11-10T19:59:29.053Z,17.00
2022-11-10T20:02:14.572Z,16.05
2022-11-10T20:05:12.392Z,16.90
2022-11-10T20:08:13.131Z,17.33
2022-11-10T20:11:21.963Z,16.83
2022-11-10T20:14:27.850Z,15.75
2022-11-10T20:17:32.852Z,16.95
2022-11-10T20:20:18.728Z,15.85
2022-11-10T20:23:06.438Z,16.73
2022-11-10T20:26:11.462Z,18.08
2022-11-10T20:28:59.014Z,17.08
2022-11-10T20:31:44.602Z,18.12
2022-11-10T20:34:29.932Z,17.15
2022-11-10T20:37:15.326Z,14.02
2022-11-10T20:40:00.972Z,16.95
2022-11-10T20:42:46.672Z,15.23
2022-11-10T20:45:32.066Z,15.98
2022-11-10T20:48:17.697Z,14.98
2022-11-10T20:51:09.337Z,15.32
2022-11-10T20:53:56.179Z,15.75
2022-11-10T20:56:41.539Z,13.57
2022-11-10T20:59:26.866Z,15.05
2022-11-10T21:02:12.592Z,16.33
2022-11-10T21:04:58.093Z,15.63
2022-11-10T21:07:43.405Z,15.98
2022-11-10T21:10:28.719Z,15.85
2022-11-10T21:13:13.872Z,14.45
2022-11-10T21:16:02.359Z,17.00
2022-11-10T21:18:47.697Z,17.50
2022-11-10T21:21:36.151Z,16.25
2022-11-10T21:24:21.522Z,16.67
2022-11-10T21:27:10.153Z,15.32
2022-11-10T21:29:55.942Z,17.00
2022-11-10T21:32:41.206Z,15.90
2022-11-10T21:35:26.512Z,17.73
2022-11-10T21:38:13.023Z,16.95
2022-11-10T21:40:58.651Z,15.95
2022-11-10T21:43:44.020Z,16.87
2022-11-10T21:46:29.305Z,17.98
2022-11-10T21:49:14.903Z,16.35
2022-11-10T21:52:00.586Z,16.60
2022-11-10T21:54:45.935Z,16.00
2022-11-10T21:57:31.133Z,16.08
2022-11-10T22:00:17.230Z,16.85
2022-11-10T22:03:03.835Z,16.25
2022-11-10T22:05:49.254Z,16.58
2022-11-10T22:08:36.170Z,15.25
2022-11-10T22:11:40.491Z,14.68
2022-11-10T22:14:44.635Z,15.80
2022-11-10T22:17:48.718Z,15.32
2022-11-10T22:20:34.484Z,16.80
2022-11-10T22:23:39.946Z,15.32
2022-11-10T22:29:11.375Z,15.68
2022-11-10T22:31:57.332Z,15.23
2022-11-10T22:34:42.711Z,16.20
2022-11-10T22:37:33.112Z,16.35
2022-11-10T22:40:37.442Z,16.35
2022-11-10T22:43:41.725Z,15.38
2022-11-10T22:46:27.694Z,16.30
2022-11-10T22:49:15.527Z,16.87
2022-11-10T22:52:01.372Z,15.43
2022-11-10T22:54:46.739Z,14.18
2022-11-10T22:57:32.298Z,15.10
2022-11-10T23:00:18.158Z,15.82
2022-11-10T23:03:03.958Z,13.90
2022-11-10T23:05:56.227Z,14.75
2022-11-10T23:08:42.856Z,14.85
2022-11-10T23:11:30.869Z,14.00
2022-11-10T23:14:16.021Z,15.57
2022-11-10T23:17:01.387Z,14.23
2022-11-10T23:19:46.596Z,14.40
2022-11-10T23:22:31.715Z,13.48
2022-11-10T23:25:17.030Z,15.10
2022-11-10T23:28:02.339Z,14.73
2022-11-10T23:30:47.690Z,14.25
2022-11-10T23:33:34.283Z,17.40
2022-11-10T23:36:22.042Z,14.60
2022-11-10T23:39:07.486Z,15.25
2022-11-10T23:41:52.783Z,15.80
2022-11-10T23:44:41.206Z,14.75
2022-11-10T23:47:26.570Z,14.50
2022-11-10T23:50:11.831Z,14.85
2022-11-10T23:52:57.274Z,14.60
2022-11-10T23:55:43.076Z,15.63
2022-11-10T23:58:29.524Z,15.95
